createdAt,value
2022-12-08T00:01:28.716Z,9.30
2022-12-08T00:06:29.495Z,8.80
2022-12-08T00:11:30.197Z,8.00
2022-12-08T00:16:31.000Z,7.80
2022-12-08T00:21:31.704Z,8.10
2022-12-08T00:26:32.449Z,8.70
2022-12-08T00:31:33.270Z,8.90
2022-12-08T00:36:33.979Z,8.70
2022-12-08T00:41:34.736Z,9.00
2022-12-08T00:46:35.437Z,9.70
2022-12-08T00:51:36.155Z,10.00
2022-12-08T00:56:36.880Z,9.00
2022-12-08T01:01:37.708Z,8.40
2022-12-08T01:06:38.456Z,9.40
2022-12-08T01:11:39.151Z,10.00
2022-12-08T01:16:39.972Z,9.70
2022-12-08T01:21:40.696Z,10.10
2022-12-08T01:26:41.461Z,11.20
2022-12-08T01:31:42.199Z,11.10
2022-12-08T01:36:42.892Z,11.80
2022-12-08T01:41:43.607Z,12.50
2022-12-08T01:46:44.477Z,12.10
2022-12-08T01:51:45.190Z,12.40
2022-12-08T01:56:45.895Z,11.60
2022-12-08T02:01:46.653Z,11.40
2022-12-08T02:06:47.340Z,11.50
2022-12-08T02:11:48.075Z,10.30
2022-12-08T02:16:48.778Z,11.60
2022-12-08T02:21:49.512Z,11.90
2022-12-08T02:26:50.253Z,12.00
2022-12-08T02:31:50.946Z,11.90
2022-12-08T02:36:51.668Z,12.00
2022-12-08T02:41:52.392Z,11.80
2022-12-08T02:46:53.150Z,11.70
2022-12-08T02:51:53.860Z,10.80
2022-12-08T02:56:54.590Z,10.70
2022-12-08T03:01:55.430Z,9.90
2022-12-08T03:06:56.127Z,9.60
2022-12-08T03:11:56.841Z,9.60
2022-12-08T03:16:57.592Z,9.20
2022-12-08T03:21:58.328Z,8.70
2022-12-08T03:26:59.028Z,8.00
2022-12-08T03:31:59.777Z,7.50
2022-12-08T03:37:00.554Z,7.50
2022-12-08T03:42:01.301Z,7.20
2022-12-08T03:47:02.010Z,6.80
2022-12-08T03:52:09.742Z,7.00
2022-12-08T03:57:03.461Z,7.50
2022-12-08T04:02:04.314Z,8.00
2022-12-08T04:07:04.994Z,8.40
2022-12-08T04:12:05.738Z,9.40
2022-12-08T04:17:06.436Z,9.40
2022-12-08T04:22:07.185Z,10.20
2022-12-08T04:27:07.891Z,10.80
2022-12-08T04:32:08.623Z,11.40
2022-12-08T04:37:09.308Z,11.90
2022-12-08T04:42:10.014Z,10.90
2022-12-08T04:47:10.824Z,11.50
2022-12-08T04:52:11.600Z,11.50
2022-12-08T04:57:12.300Z,12.70
2022-12-08T05:02:13.245Z,14.20
2022-12-08T05:07:13.664Z,14.70
2022-12-08T05:12:14.409Z,14.00
2022-12-08T05:17:15.114Z,13.30
2022-12-08T05:22:15.845Z,13.70
2022-12-08T05:27:16.598Z,14.70
2022-12-08T05:32:17.324Z,14.70
2022-12-08T05:37:18.051Z,15.30
2022-12-08T05:42:24.366Z,16.30
2022-12-08T05:47:20.414Z,16.80
2022-12-08T05:52:20.088Z,17.10
2022-12-08T05:57:20.832Z,17.60
2022-12-08T06:02:21.852Z,18.90
2022-12-08T06:07:22.153Z,18.60
2022-12-08T06:12:22.869Z,19.50
2022-12-08T06:17:23.617Z,18.80
2022-12-08T06:22:24.286Z,18.80
2022-12-08T06:27:25.034Z,18.90
2022-12-08T06:32:27.560Z,19.20
2022-12-08T06:37:26.376Z,19.30
2022-12-08T06:42:27.070Z,17.90
2022-12-08T06:47:27.735Z,18.90
2022-12-08T06:52:28.419Z,18.80
2022-12-08T06:57:29.106Z,20.00
2022-12-08T07:02:29.865Z,19.00
2022-12-08T07:07:30.559Z,19.00
2022-12-08T07:12:31.240Z,18.60
2022-12-08T07:17:31.916Z,17.90
2022-12-08T07:22:32.626Z,18.90
2022-12-08T07:27:33.285Z,17.80
2022-12-08T07:32:33.955Z,18.50
2022-12-08T07:37:34.647Z,18.60
2022-12-08T07:42:35.407Z,18.10
2022-12-08T07:47:36.024Z,17.40
2022-12-08T07:52:36.698Z,18.10
2022-12-08T07:57:37.422Z,17.10
2022-12-08T08:02:38.253Z,17.30
2022-12-08T08:07:38.970Z,17.40
2022-12-08T08:12:39.649Z,17.10
2022-12-08T08:17:40.469Z,19.30
2022-12-08T08:22:41.154Z,20.40
2022-12-08T08:27:41.893Z,19.10
2022-12-08T08:32:42.623Z,16.90
2022-12-08T08:37:48.551Z,17.40
2022-12-08T08:42:44.824Z,15.40
2022-12-08T08:47:44.543Z,16.00
2022-12-08T08:52:45.201Z,15.60
2022-12-08T08:57:46.034Z,16.00
2022-12-08T09:02:46.745Z,15.50
2022-12-08T09:07:47.471Z,16.50
2022-12-08T09:12:48.125Z,15.80
2022-12-08T09:17:48.807Z,15.40
2022-12-08T09:22:49.488Z,15.70
2022-12-08T09:27:50.148Z,16.60
2022-12-08T09:32:50.829Z,14.40
2022-12-08T09:37:51.534Z,15.10
2022-12-08T09:42:52.237Z,16.10
2022-12-08T09:47:52.901Z,16.40
2022-12-08T09:53:00.608Z,15.70
2022-12-08T09:57:56.558Z,15.30
2022-12-08T10:02:55.384Z,17.10
2022-12-08T10:07:55.996Z,16.20
2022-12-08T10:12:56.651Z,15.40
2022-12-08T10:17:57.311Z,15.80
2022-12-08T10:22:59.095Z,16.80
2022-12-08T10:27:58.789Z,15.90
2022-12-08T10:32:59.462Z,15.60
2022-12-08T10:38:00.146Z,15.40
2022-12-08T10:43:00.830Z,15.90
2022-12-08T10:48:01.523Z,15.40
2022-12-08T10:53:02.199Z,14.20
2022-12-08T10:58:02.878Z,14.90
2022-12-08T11:03:03.735Z,14.70
2022-12-08T11:08:04.608Z,14.60
2022-12-08T11:13:05.301Z,13.20
2022-12-08T11:18:05.996Z,13.60
2022-12-08T11:23:06.656Z,13.20
2022-12-08T11:28:07.345Z,10.90
2022-12-08T11:33:08.051Z,11.00
2022-12-08T11:38:20.991Z,10.50
2022-12-08T11:43:10.279Z,10.80
2022-12-08T11:48:09.984Z,12.20
2022-12-08T11:53:10.630Z,12.80
2022-12-08T11:58:11.361Z,13.10
2022-12-08T12:03:12.178Z,14.70
2022-12-08T12:08:12.915Z,13.90
2022-12-08T12:13:13.593Z,14.10
2022-12-08T12:18:16.975Z,15.40
2022-12-08T12:23:14.759Z,15.10
2022-12-08T12:28:15.455Z,15.90
2022-12-08T12:33:16.122Z,15.30
2022-12-08T12:38:16.814Z,15.00
2022-12-08T12:43:17.470Z,15.30
2022-12-08T12:48:18.156Z,14.20
2022-12-08T12:53:18.842Z,13.30
2022-12-08T12:58:19.540Z,13.20
2022-12-08T13:03:20.202Z,13.20
2022-12-08T13:08:20.935Z,12.80
2022-12-08T13:13:21.594Z,13.30
2022-12-08T13:18:22.249Z,14.10
2022-12-08T13:23:22.945Z,11.90
2022-12-08T13:28:23.625Z,8.70
2022-12-08T13:33:24.325Z,8.70
2022-12-08T13:38:24.984Z,8.70
2022-12-08T13:43:25.663Z,9.30
2022-12-08T13:48:56.209Z,10.50
2022-12-08T13:54:36.586Z,12.30
2022-12-08T13:58:28.440Z,14.00
2022-12-08T14:03:28.126Z,14.50
2022-12-08T14:08:58.053Z,13.20
2022-12-08T14:13:30.337Z,13.30
2022-12-08T14:18:30.039Z,13.10
2022-12-08T14:23:30.708Z,13.50
2022-12-08T14:28:31.387Z,13.70
2022-12-08T14:33:32.067Z,13.80
2022-12-08T14:38:32.859Z,13.00
2022-12-08T14:43:33.511Z,11.50
2022-12-08T14:48:34.185Z,12.40
2022-12-08T14:53:34.974Z,12.50
2022-12-08T14:58:35.605Z,12.90
2022-12-08T15:03:36.290Z,12.20
2022-12-08T15:08:36.976Z,12.70
2022-12-08T15:13:37.649Z,13.00
2022-12-08T15:18:38.339Z,12.20
2022-12-08T15:23:39.011Z,12.60
2022-12-08T15:28:39.666Z,11.90
2022-12-08T15:33:40.341Z,12.50
2022-12-08T15:38:41.089Z,12.20
2022-12-08T15:43:41.839Z,12.20
2022-12-08T15:48:42.545Z,12.10
2022-12-08T15:53:50.280Z,12.10
2022-12-08T15:58:59.595Z,11.80
2022-12-08T16:08:55.826Z,11.80
2022-12-08T16:13:57.592Z,11.90
2022-12-08T16:18:47.366Z,12.50
2022-12-08T16:23:47.120Z,13.60
2022-12-08T16:28:55.179Z,12.80
2022-12-08T16:33:49.448Z,12.80
2022-12-08T16:38:49.146Z,18.00
2022-12-08T16:43:49.815Z,16.30
2022-12-08T16:48:50.529Z,14.50
2022-12-08T16:53:51.274Z,12.60
2022-12-08T16:58:51.926Z,12.60
2022-12-08T17:04:14.721Z,11.40
2022-12-08T17:08:54.289Z,11.40
2022-12-08T17:13:53.975Z,11.70
2022-12-08T17:18:54.691Z,11.50
2022-12-08T17:23:55.416Z,11.20
2022-12-08T17:29:00.856Z,11.10
2022-12-08T17:33:57.739Z,18.20
2022-12-08T17:38:57.401Z,19.30
2022-12-08T17:43:58.146Z,15.20
2022-12-08T17:48:58.843Z,13.60
2022-12-08T17:53:59.561Z,13.90
2022-12-08T17:59:00.232Z,13.30
2022-12-08T18:04:00.967Z,14.30
2022-12-08T18:09:01.660Z,14.70
2022-12-08T18:14:02.386Z,14.50
2022-12-08T18:19:03.129Z,14.90
2022-12-08T18:24:03.830Z,17.40
2022-12-08T18:29:04.551Z,19.40
2022-12-08T18:34:05.241Z,17.40
2022-12-08T18:39:10.767Z,17.40
2022-12-08T18:44:07.530Z,18.80
2022-12-08T18:49:07.188Z,18.80
2022-12-08T18:54:07.918Z,18.90
2022-12-08T18:59:08.604Z,17.60
2022-12-08T19:04:27.947Z,17.80
2022-12-08T19:09:10.941Z,18.30
2022-12-08T19:14:10.638Z,18.00
2022-12-08T19:19:11.305Z,19.00
2022-12-08T19:24:12.018Z,15.70
2022-12-08T19:29:12.753Z,15.70
2022-12-08T19:34:13.441Z,15.20
2022-12-08T19:39:14.160Z,15.00
2022-12-08T19:44:15.004Z,14.50
2022-12-08T19:49:15.711Z,14.50
2022-12-08T19:54:16.426Z,15.70
2022-12-08T19:59:17.145Z,15.20
2022-12-08T20:04:17.906Z,15.30
2022-12-08T20:09:18.632Z,15.80
2022-12-08T20:14:19.365Z,15.50
2022-12-08T20:19:20.170Z,17.10
2022-12-08T20:24:20.901Z,15.90
2022-12-08T20:29:21.668Z,18.30
2022-12-08T20:34:22.400Z,19.70
2022-12-08T20:39:23.066Z,16.80
2022-12-08T20:44:23.814Z,17.00
2022-12-08T20:49:27.291Z,15.90
2022-12-08T20:54:26.383Z,15.50
2022-12-08T20:59:26.052Z,16.30
2022-12-08T21:04:27.081Z,16.90
2022-12-08T21:09:27.608Z,17.70
2022-12-08T21:14:27.935Z,16.50
2022-12-08T21:19:28.648Z,16.70
2022-12-08T21:24:34.006Z,15.90
2022-12-08T21:29:31.046Z,16.50
2022-12-08T21:34:30.825Z,16.20
2022-12-08T21:39:31.489Z,15.80
2022-12-08T21:44:32.373Z,16.40
2022-12-08T21:49:33.128Z,18.20
2022-12-08T21:54:40.553Z,21.00
2022-12-08T21:59:34.421Z,21.40
2022-12-08T22:04:35.266Z,18.20
2022-12-08T22:09:36.355Z,17.40
2022-12-08T22:14:36.582Z,17.30
2022-12-08T22:19:37.484Z,18.60
2022-12-08T22:24:38.299Z,18.40
2022-12-08T22:29:39.087Z,17.90
2022-12-08T22:34:39.780Z,16.70
2022-12-08T22:39:40.587Z,16.80
2022-12-08T22:44:41.530Z,17.10
2022-12-08T22:49:42.215Z,15.80
2022-12-08T22:54:43.164Z,16.10
2022-12-08T22:59:44.141Z,16.30
2022-12-08T23:04:44.741Z,16.00
2022-12-08T23:09:45.008Z,16.20
2022-12-08T23:14:45.755Z,16.50
2022-12-08T23:19:46.494Z,16.20
2022-12-08T23:24:47.227Z,15.40
2022-12-08T23:29:47.933Z,15.20
2022-12-08T23:34:48.657Z,15.10
2022-12-08T23:39:49.404Z,14.40
2022-12-08T23:44:50.177Z,13.40
2022-12-08T23:49:50.856Z,12.90
2022-12-08T23:54:51.990Z,13.00
2022-12-08T23:59:52.667Z,12.90
